createdAt,value
2023-03-26T00:02:04.517Z,8.35
2023-03-26T00:04:16.555Z,8.36
2023-03-26T00:06:28.592Z,8.35
2023-03-26T00:08:40.685Z,8.35
2023-03-26T00:10:52.747Z,8.33
2023-03-26T00:13:04.844Z,8.36
2023-03-26T00:15:16.937Z,8.36
2023-03-26T00:17:29.081Z,8.36
2023-03-26T00:19:41.130Z,8.35
2023-03-26T00:21:53.184Z,8.35
2023-03-26T00:24:05.269Z,8.32
2023-03-26T00:26:17.405Z,8.32
2023-03-26T00:28:29.447Z,8.30
2023-03-26T00:30:41.582Z,8.30
2023-03-26T00:32:54.094Z,8.33
2023-03-26T00:35:06.584Z,8.32
2023-03-26T00:37:17.786Z,8.32
2023-03-26T00:39:29.858Z,8.32
2023-03-26T00:41:41.949Z,8.32
2023-03-26T00:43:54.588Z,8.35
2023-03-26T00:46:06.116Z,8.36
2023-03-26T00:48:18.238Z,8.36
2023-03-26T00:50:30.299Z,8.33
2023-03-26T00:52:42.383Z,8.30
2023-03-26T00:54:54.488Z,8.30
2023-03-26T00:57:06.578Z,8.29
2023-03-26T00:59:18.647Z,8.25
2023-03-26T01:01:31.718Z,8.15
2023-03-26T01:03:53.000Z,8.07
2023-03-26T01:05:56.814Z,7.97
2023-03-26T01:08:07.945Z,7.92
2023-03-26T01:10:20.044Z,7.87
2023-03-26T01:12:32.129Z,7.84
2023-03-26T01:14:44.195Z,7.81
2023-03-26T01:16:56.287Z,7.81
2023-03-26T01:19:08.334Z,7.79
2023-03-26T01:21:20.498Z,7.75
2023-03-26T01:23:32.519Z,7.71
2023-03-26T01:25:44.615Z,7.69
2023-03-26T01:27:57.695Z,7.62
2023-03-26T01:30:09.811Z,7.60
2023-03-26T01:32:22.456Z,7.60
2023-03-26T01:34:33.967Z,7.62
2023-03-26T01:36:46.028Z,7.60
2023-03-26T01:38:59.324Z,7.60
2023-03-26T01:41:10.220Z,7.62
2023-03-26T01:43:22.313Z,7.63
2023-03-26T01:45:34.369Z,7.71
2023-03-26T01:47:46.479Z,7.69
2023-03-26T01:49:58.526Z,7.69
2023-03-26T01:52:10.669Z,7.69
2023-03-26T01:54:24.274Z,7.69
2023-03-26T01:56:36.372Z,7.69
2023-03-26T01:58:48.420Z,7.71
2023-03-26T02:01:00.513Z,7.72
2023-03-26T02:03:12.643Z,7.71
2023-03-26T02:05:24.689Z,7.67
2023-03-26T02:07:36.767Z,7.63
2023-03-26T02:09:48.845Z,7.60
2023-03-26T02:12:00.935Z,7.59
2023-03-26T02:14:12.998Z,7.56
2023-03-26T02:16:25.145Z,7.50
2023-03-26T02:18:38.294Z,7.42
2023-03-26T02:20:50.266Z,7.40
2023-03-26T02:23:02.309Z,7.35
2023-03-26T02:25:14.407Z,7.31
2023-03-26T02:27:26.514Z,7.31
2023-03-26T02:29:38.618Z,7.24
2023-03-26T02:31:50.732Z,7.27
2023-03-26T02:34:02.784Z,7.32
2023-03-26T02:36:14.931Z,7.38
2023-03-26T02:38:26.980Z,7.40
2023-03-26T02:40:39.039Z,7.44
2023-03-26T02:42:51.121Z,7.44
2023-03-26T02:45:03.204Z,7.49
2023-03-26T02:47:15.288Z,7.47
2023-03-26T02:49:27.417Z,7.47
2023-03-26T02:51:39.476Z,7.47
2023-03-26T02:53:51.556Z,7.45
2023-03-26T02:56:03.774Z,7.45
2023-03-26T02:58:15.741Z,7.49
2023-03-26T03:00:27.834Z,7.53
2023-03-26T03:02:40.020Z,7.58
2023-03-26T03:04:52.038Z,7.62
2023-03-26T03:07:05.078Z,7.63
2023-03-26T03:09:17.162Z,7.66
2023-03-26T03:11:29.266Z,7.69
2023-03-26T03:13:42.309Z,7.67
2023-03-26T03:15:54.578Z,7.69
2023-03-26T03:18:06.503Z,7.66
2023-03-26T03:20:18.565Z,7.62
2023-03-26T03:22:32.161Z,7.66
2023-03-26T03:24:44.210Z,7.66
2023-03-26T03:26:56.302Z,7.66
2023-03-26T03:29:08.368Z,7.66
2023-03-26T03:31:20.478Z,7.75
2023-03-26T03:33:32.535Z,7.77
2023-03-26T03:35:45.624Z,7.74
2023-03-26T03:37:57.671Z,7.75
2023-03-26T03:40:09.766Z,7.74
2023-03-26T03:42:21.856Z,7.67
2023-03-26T03:44:34.958Z,7.62
2023-03-26T03:46:47.022Z,7.63
2023-03-26T03:48:59.089Z,7.62
2023-03-26T03:51:11.182Z,7.66
2023-03-26T03:53:23.244Z,7.66
2023-03-26T03:55:35.372Z,7.62
2023-03-26T03:57:47.462Z,7.60
2023-03-26T03:59:59.544Z,7.58
2023-03-26T04:02:11.649Z,7.60
2023-03-26T04:04:23.713Z,7.60
2023-03-26T04:06:37.293Z,7.63
2023-03-26T04:08:50.350Z,7.58
2023-03-26T04:11:03.954Z,7.52
2023-03-26T04:13:17.544Z,7.50
2023-03-26T04:15:29.612Z,7.49
2023-03-26T04:17:41.804Z,7.44
2023-03-26T04:19:53.813Z,7.41
2023-03-26T04:22:05.903Z,7.38
2023-03-26T04:24:17.971Z,7.34
2023-03-26T04:26:31.293Z,7.32
2023-03-26T04:28:43.129Z,7.32
2023-03-26T04:30:55.245Z,7.26
2023-03-26T04:33:07.339Z,7.22
2023-03-26T04:35:19.421Z,7.17
2023-03-26T04:37:31.450Z,7.13
2023-03-26T04:39:44.512Z,7.12
2023-03-26T04:41:55.632Z,7.09
2023-03-26T04:44:07.685Z,7.05
2023-03-26T04:46:19.813Z,7.01
2023-03-26T04:48:31.902Z,6.97
2023-03-26T04:50:44.883Z,6.99
2023-03-26T04:52:56.056Z,7.04
2023-03-26T04:55:08.143Z,7.16
2023-03-26T04:57:20.235Z,7.26
2023-03-26T04:59:33.288Z,7.31
2023-03-26T05:01:46.393Z,7.34
2023-03-26T05:03:59.503Z,7.38
2023-03-26T05:06:11.530Z,7.41
2023-03-26T05:08:23.633Z,7.41
2023-03-26T05:10:35.702Z,7.41
2023-03-26T05:12:47.813Z,7.40
2023-03-26T05:14:59.878Z,7.37
2023-03-26T05:17:11.957Z,7.38
2023-03-26T05:19:24.947Z,7.40
2023-03-26T05:21:36.143Z,7.44
2023-03-26T05:23:48.269Z,7.49
2023-03-26T05:26:00.799Z,7.49
2023-03-26T05:28:12.393Z,7.50
2023-03-26T05:30:24.494Z,7.49
2023-03-26T05:32:36.676Z,7.49
2023-03-26T05:34:48.691Z,7.52
2023-03-26T05:37:00.859Z,7.52
2023-03-26T05:39:12.819Z,7.56
2023-03-26T05:41:24.939Z,7.58
2023-03-26T05:43:37.007Z,7.59
2023-03-26T05:45:49.134Z,7.58
2023-03-26T05:48:01.300Z,7.55
2023-03-26T05:50:13.257Z,7.55
2023-03-26T05:52:25.336Z,7.58
2023-03-26T05:54:37.427Z,7.59
2023-03-26T05:56:49.592Z,7.59
2023-03-26T05:59:01.628Z,7.59
2023-03-26T06:01:13.713Z,7.63
2023-03-26T06:03:25.856Z,7.66
2023-03-26T06:05:37.847Z,7.66
2023-03-26T06:07:49.939Z,7.66
2023-03-26T06:10:02.004Z,7.71
2023-03-26T06:12:14.080Z,7.75
2023-03-26T06:14:27.462Z,7.81
2023-03-26T06:16:39.541Z,7.84
2023-03-26T06:18:56.740Z,7.90
2023-03-26T06:21:03.692Z,7.89
2023-03-26T06:23:15.802Z,7.93
2023-03-26T06:25:29.386Z,7.97
2023-03-26T06:27:43.379Z,7.90
2023-03-26T06:29:54.572Z,7.90
2023-03-26T06:32:19.050Z,7.93
2023-03-26T06:33:07.592Z,7.92
2023-03-26T06:35:18.705Z,7.85
2023-03-26T06:37:33.574Z,7.74
2023-03-26T07:47:03.319Z,8.58
2023-03-26T07:49:21.413Z,8.66
2023-03-26T07:50:21.530Z,8.66
2023-03-26T07:52:35.984Z,8.60
2023-03-26T07:54:51.716Z,8.57
2023-03-26T07:57:07.257Z,8.55
2023-03-26T07:59:21.840Z,8.47
2023-03-26T08:01:37.380Z,8.47
2023-03-26T08:03:55.507Z,8.51
2023-03-26T08:06:11.064Z,8.62
2023-03-26T08:08:27.527Z,8.66
2023-03-26T08:10:44.727Z,8.76
2023-03-26T08:13:01.360Z,8.97
2023-03-26T08:15:15.936Z,9.04
2023-03-26T08:17:31.357Z,9.06
2023-03-26T08:19:46.105Z,9.20
2023-03-26T08:22:03.626Z,9.25
2023-03-26T08:24:19.222Z,9.24
2023-03-26T08:26:37.528Z,9.30
2023-03-26T08:28:52.918Z,9.48
2023-03-26T08:31:10.980Z,9.58
2023-03-26T08:33:27.582Z,9.63
2023-03-26T08:35:45.703Z,9.79
2023-03-26T08:38:01.471Z,9.76
2023-03-26T08:40:15.893Z,9.46
2023-03-26T08:42:30.403Z,9.43
2023-03-26T08:44:46.001Z,9.50
2023-03-26T08:47:04.279Z,9.57
2023-03-26T08:49:19.711Z,9.48
2023-03-26T08:51:35.297Z,9.40
2023-03-26T08:53:49.883Z,9.45
2023-03-26T08:56:06.506Z,9.25
2023-03-26T08:58:22.181Z,9.02
2023-03-26T09:00:40.411Z,8.97
2023-03-26T09:02:58.331Z,8.99
2023-03-26T09:05:16.900Z,9.01
2023-03-26T09:07:30.982Z,8.96
2023-03-26T09:09:46.578Z,8.91
2023-03-26T09:12:05.045Z,8.79
2023-03-26T09:14:25.359Z,8.65
2023-03-26T09:16:41.978Z,8.55
2023-03-26T09:18:57.532Z,8.40
2023-03-26T09:21:15.923Z,8.30
2023-03-26T09:23:31.626Z,8.36
2023-03-26T09:25:49.666Z,8.50
2023-03-26T09:28:07.928Z,8.53
2023-03-26T09:30:25.853Z,8.55
2023-03-26T09:32:40.770Z,8.58
2023-03-26T09:34:56.365Z,8.60
2023-03-26T09:37:14.427Z,8.62
2023-03-26T09:39:32.548Z,8.63
2023-03-26T09:41:50.906Z,8.86
2023-03-26T09:44:09.704Z,9.12
2023-03-26T09:46:23.577Z,9.42
2023-03-26T09:48:41.641Z,9.50
2023-03-26T09:50:57.630Z,9.50
2023-03-26T09:53:15.349Z,9.30
2023-03-26T09:55:30.991Z,9.10
2023-03-26T09:57:46.520Z,8.88
2023-03-26T10:00:00.434Z,8.78
2023-03-26T10:02:15.726Z,8.66
2023-03-26T10:04:36.337Z,8.58
2023-03-26T10:06:54.846Z,8.57
2023-03-26T10:09:10.116Z,8.54
2023-03-26T10:11:29.518Z,8.54
2023-03-26T10:13:45.062Z,8.58
2023-03-26T10:16:02.801Z,8.57
2023-03-26T10:18:28.012Z,8.57
2023-03-26T10:19:19.327Z,8.57
2023-03-26T10:21:36.432Z,8.71
2023-03-26T10:23:54.720Z,8.91
2023-03-26T10:26:11.323Z,9.13
2023-03-26T10:28:29.261Z,9.31
2023-03-26T10:30:47.332Z,9.64
2023-03-26T10:33:05.864Z,9.86
2023-03-26T10:57:10.209Z,11.07
2023-03-26T11:09:52.020Z,11.01
2023-03-26T11:12:26.339Z,11.09
2023-03-26T11:14:34.909Z,11.02
2023-03-26T11:16:49.775Z,10.94
2023-03-26T11:19:07.094Z,10.99
2023-03-26T11:21:28.359Z,11.31
2023-03-26T11:23:46.303Z,11.19
2023-03-26T11:26:06.908Z,11.31
2023-03-26T11:28:25.038Z,11.53
2023-03-26T11:30:43.054Z,11.65
2023-03-26T11:32:58.857Z,11.70
2023-03-26T11:35:14.221Z,11.41
2023-03-26T11:37:32.313Z,11.43
2023-03-26T11:39:50.415Z,11.27
2023-03-26T11:42:11.011Z,11.35
2023-03-26T11:44:26.637Z,11.54
2023-03-26T11:46:44.716Z,11.53
2023-03-26T11:48:59.286Z,11.54
2023-03-26T11:51:14.867Z,11.31
2023-03-26T11:53:32.970Z,11.31
2023-03-26T11:55:51.116Z,11.49
2023-03-26T11:58:10.125Z,11.43
2023-03-26T12:00:25.758Z,11.54
2023-03-26T12:02:41.583Z,11.68
2023-03-26T12:04:56.159Z,12.01
2023-03-26T12:07:10.525Z,12.15
2023-03-26T12:09:30.228Z,12.16
2023-03-26T12:11:44.186Z,12.19
2023-03-26T12:14:02.363Z,11.93
2023-03-26T12:16:20.541Z,12.12
2023-03-26T12:18:34.974Z,12.11
2023-03-26T12:20:53.357Z,11.80
2023-03-26T12:23:08.685Z,11.87
2023-03-26T12:25:29.318Z,11.87
2023-03-26T12:27:49.991Z,12.11
2023-03-26T12:30:06.557Z,12.26
2023-03-26T12:32:29.695Z,12.49
2023-03-26T12:33:25.914Z,12.54
2023-03-26T12:35:40.535Z,12.62
2023-03-26T12:37:57.008Z,12.63
2023-03-26T12:43:51.428Z,12.89
2023-03-26T12:44:47.906Z,12.87
2023-03-26T12:48:50.905Z,12.85
2023-03-26T12:50:42.931Z,12.84
2023-03-26T13:09:42.514Z,12.23
2023-03-26T13:15:52.829Z,12.21
2023-03-26T13:18:11.333Z,12.23
2023-03-26T13:51:55.334Z,13.36
